createdAt,value
2019-03-24T00:00:20.787Z,89.37
2019-03-24T00:00:46.893Z,89.47
2019-03-24T00:01:13.033Z,89.56
2019-03-24T00:01:41.285Z,89.47
2019-03-24T00:02:07.254Z,89.47
2019-03-24T00:02:33.363Z,88.99
2019-03-24T00:02:59.470Z,89.65
2019-03-24T00:03:25.578Z,89.37
2019-03-24T00:03:51.685Z,89.08
2019-03-24T00:04:17.795Z,89.27
2019-03-24T00:04:43.910Z,89.08
2019-03-24T00:05:10.014Z,89.56
2019-03-24T00:05:36.127Z,89.37
2019-03-24T00:06:02.233Z,89.18
2019-03-24T00:06:28.344Z,89.47
2019-03-24T00:06:54.451Z,89.37
2019-03-24T00:07:20.553Z,89.08
2019-03-24T00:07:46.694Z,89.18
2019-03-24T00:08:12.828Z,88.79
2019-03-24T00:08:38.936Z,89.08
2019-03-24T00:09:05.052Z,89.08
2019-03-24T00:09:31.151Z,89.08
2019-03-24T00:09:57.250Z,88.99
2019-03-24T00:10:23.360Z,89.27
2019-03-24T00:10:49.469Z,89.18
2019-03-24T00:11:15.576Z,88.99
2019-03-24T00:11:41.684Z,89.08
2019-03-24T00:12:07.794Z,89.18
2019-03-24T00:12:33.931Z,89.27
2019-03-24T00:13:00.037Z,89.08
2019-03-24T00:13:26.143Z,89.08
2019-03-24T00:13:52.243Z,88.89
2019-03-24T00:14:18.349Z,89.08
2019-03-24T00:14:44.457Z,89.18
2019-03-24T00:15:10.589Z,89.37
2019-03-24T00:15:38.671Z,89.27
2019-03-24T00:16:04.781Z,88.89
2019-03-24T00:16:30.919Z,88.99
2019-03-24T00:16:57.050Z,89.37
2019-03-24T00:17:23.161Z,89.08
2019-03-24T00:17:49.299Z,89.27
2019-03-24T00:18:15.436Z,89.56
2019-03-24T00:18:41.540Z,89.56
2019-03-24T00:19:07.683Z,89.56
2019-03-24T00:19:33.779Z,89.56
2019-03-24T00:19:59.896Z,89.56
2019-03-24T00:20:26.168Z,89.47
2019-03-24T00:20:52.279Z,89.37
2019-03-24T00:21:18.388Z,89.37
2019-03-24T00:21:44.493Z,88.99
2019-03-24T00:22:10.602Z,89.18
2019-03-24T00:22:36.709Z,89.08
2019-03-24T00:23:02.812Z,89.47
2019-03-24T00:23:28.915Z,89.08
2019-03-24T00:23:55.030Z,89.18
2019-03-24T00:24:21.137Z,89.37
2019-03-24T00:24:47.301Z,89.47
2019-03-24T00:25:13.377Z,89.37
2019-03-24T00:25:39.491Z,89.18
2019-03-24T00:26:05.600Z,88.99
2019-03-24T00:26:32.694Z,89.08
2019-03-24T00:26:58.829Z,88.89
2019-03-24T00:27:24.942Z,89.47
2019-03-24T00:27:51.133Z,88.89
2019-03-24T00:28:17.272Z,89.27
2019-03-24T00:28:43.380Z,88.99
2019-03-24T00:29:09.489Z,88.99
2019-03-24T00:29:35.597Z,88.89
2019-03-24T00:30:01.706Z,88.89
2019-03-24T00:30:27.843Z,88.79
2019-03-24T00:30:53.950Z,88.89
2019-03-24T00:31:20.064Z,88.89
2019-03-24T00:31:46.167Z,88.89
2019-03-24T00:32:12.277Z,88.99
2019-03-24T00:32:38.387Z,88.89
2019-03-24T00:33:04.496Z,88.7
2019-03-24T00:33:30.598Z,88.42
2019-03-24T00:33:56.735Z,88.6
2019-03-24T00:34:22.845Z,88.23
2019-03-24T00:34:48.952Z,88.42
2019-03-24T00:35:15.085Z,88.6
2019-03-24T00:35:41.192Z,88.6
2019-03-24T00:36:07.301Z,88.89
2019-03-24T00:36:33.411Z,89.08
2019-03-24T00:36:59.556Z,88.99
2019-03-24T00:37:25.656Z,88.99
2019-03-24T00:37:51.763Z,88.89
2019-03-24T00:38:17.874Z,88.99
2019-03-24T00:38:43.977Z,88.99
2019-03-24T00:39:10.088Z,88.79
2019-03-24T00:39:36.220Z,88.79
2019-03-24T00:40:02.328Z,88.99
2019-03-24T00:40:28.437Z,89.18
2019-03-24T00:40:54.537Z,88.79
2019-03-24T00:41:20.642Z,89.08
2019-03-24T00:41:46.753Z,89.08
2019-03-24T00:42:12.884Z,89.18
2019-03-24T00:42:38.989Z,88.79
2019-03-24T00:43:05.089Z,88.79
2019-03-24T00:43:31.195Z,88.99
2019-03-24T00:43:57.331Z,88.79
2019-03-24T00:44:23.437Z,88.99
2019-03-24T00:44:49.549Z,88.99
2019-03-24T00:45:15.700Z,88.89
2019-03-24T00:45:42.775Z,88.89
2019-03-24T00:46:08.880Z,89.08
2019-03-24T00:46:34.990Z,89.18
2019-03-24T00:47:01.101Z,88.89
2019-03-24T00:47:27.199Z,88.89
2019-03-24T00:47:54.299Z,89.27
2019-03-24T00:48:20.433Z,88.79
2019-03-24T00:48:46.574Z,89.08
2019-03-24T00:49:12.676Z,88.99
2019-03-24T00:49:38.820Z,88.99
2019-03-24T00:50:04.927Z,88.79
2019-03-24T00:50:31.053Z,88.79
2019-03-24T00:50:57.167Z,89.08
2019-03-24T00:51:23.275Z,89.08
2019-03-24T00:51:49.401Z,89.18
2019-03-24T00:52:15.512Z,88.89
2019-03-24T00:52:41.614Z,88.42
2019-03-24T00:53:07.726Z,88.79
2019-03-24T00:53:33.825Z,88.51
2019-03-24T00:53:59.935Z,88.42
2019-03-24T00:54:26.042Z,88.32
2019-03-24T00:54:52.150Z,88.6
2019-03-24T00:55:18.252Z,88.32
2019-03-24T00:55:44.365Z,88.7
2019-03-24T00:56:10.476Z,87.75
2019-03-24T00:56:36.598Z,88.04
2019-03-24T00:57:02.710Z,88.23
2019-03-24T00:57:28.850Z,88.04
2019-03-24T00:57:54.962Z,88.04
2019-03-24T00:58:21.066Z,88.23
2019-03-24T00:58:47.172Z,88.51
2019-03-24T00:59:13.271Z,88.23
2019-03-24T00:59:39.379Z,88.51
2019-03-24T01:00:05.639Z,87.85
2019-03-24T01:00:31.745Z,87.85
2019-03-24T01:00:57.881Z,87.75
2019-03-24T01:01:24.018Z,87.37
2019-03-24T01:01:50.131Z,87.65
2019-03-24T01:02:16.268Z,87.65
2019-03-24T01:02:42.403Z,87.08
2019-03-24T01:03:08.542Z,86.99
2019-03-24T01:03:34.675Z,86.99
2019-03-24T01:04:00.785Z,87.46
2019-03-24T01:04:26.895Z,87.37
2019-03-24T01:04:52.996Z,86.7
2019-03-24T01:05:19.136Z,86.22
2019-03-24T01:05:45.284Z,86.61
2019-03-24T01:06:11.385Z,86.61
2019-03-24T01:06:37.489Z,86.8
2019-03-24T01:07:03.599Z,86.61
2019-03-24T01:07:29.755Z,86.9
2019-03-24T01:07:55.863Z,86.7
2019-03-24T01:08:22.014Z,86.8
2019-03-24T01:08:48.213Z,86.61
2019-03-24T01:09:14.273Z,86.7
2019-03-24T01:09:40.386Z,86.7
2019-03-24T01:10:06.522Z,86.32
2019-03-24T01:10:32.627Z,86.9
2019-03-24T01:10:58.734Z,87.56
2019-03-24T01:11:24.845Z,87.27
2019-03-24T01:11:50.956Z,87.37
2019-03-24T01:12:17.056Z,86.7
2019-03-24T01:12:43.162Z,86.9
2019-03-24T01:13:09.270Z,86.61
2019-03-24T01:13:35.377Z,87.08
2019-03-24T01:14:01.488Z,86.7
2019-03-24T01:14:27.592Z,86.61
2019-03-24T01:14:53.704Z,86.51
2019-03-24T01:15:19.834Z,86.61
2019-03-24T01:15:47.827Z,86.42
2019-03-24T01:16:13.092Z,86.22
2019-03-24T01:16:39.200Z,85.94
2019-03-24T01:17:05.361Z,85.75
2019-03-24T01:17:31.470Z,85.66
2019-03-24T01:17:57.611Z,85.75
2019-03-24T01:18:23.751Z,86.32
2019-03-24T01:18:49.857Z,86.04
2019-03-24T01:19:15.958Z,86.7
2019-03-24T01:19:42.065Z,86.42
2019-03-24T01:20:08.180Z,86.42
2019-03-24T01:20:34.277Z,86.51
2019-03-24T01:21:00.392Z,86.8
2019-03-24T01:21:26.491Z,86.7
2019-03-24T01:21:52.607Z,86.8
2019-03-24T01:22:18.715Z,86.42
2019-03-24T01:22:44.854Z,86.8
2019-03-24T01:23:10.962Z,86.7
2019-03-24T01:23:37.061Z,86.32
2019-03-24T01:24:03.170Z,86.42
2019-03-24T01:24:29.281Z,86.04
2019-03-24T01:24:55.381Z,86.51
2019-03-24T01:25:21.515Z,85.56
2019-03-24T01:25:47.705Z,85.75
2019-03-24T01:26:13.791Z,86.28
2019-03-24T01:26:39.892Z,85.9
2019-03-24T01:27:06.004Z,86.18
2019-03-24T01:27:32.112Z,86.28
2019-03-24T01:27:58.220Z,86.09
2019-03-24T01:28:24.358Z,86.47
2019-03-24T01:28:50.494Z,86.38
2019-03-24T01:29:16.633Z,86.76
2019-03-24T01:29:42.740Z,86.38
2019-03-24T01:30:08.878Z,86.18
2019-03-24T01:30:34.979Z,85.99
2019-03-24T01:31:01.086Z,86.09
2019-03-24T01:31:27.193Z,85.99
2019-03-24T01:31:53.328Z,85.52
2019-03-24T01:32:19.427Z,86.28
2019-03-24T01:32:45.537Z,86.28
2019-03-24T01:33:11.657Z,85.99
2019-03-24T01:33:37.749Z,86.09
2019-03-24T01:34:03.859Z,85.71
2019-03-24T01:34:29.993Z,86.38
2019-03-24T01:34:56.108Z,85.33
2019-03-24T01:35:22.212Z,85.61
2019-03-24T01:35:48.320Z,85.75
2019-03-24T01:36:14.425Z,85.8
2019-03-24T01:36:40.534Z,85.52
2019-03-24T01:37:06.640Z,85.75
2019-03-24T01:37:32.752Z,85.71
2019-03-24T01:37:58.893Z,85.9
2019-03-24T01:38:25.030Z,85.47
2019-03-24T01:38:51.138Z,85.94
2019-03-24T01:39:17.272Z,85.66
2019-03-24T01:39:43.378Z,85.85
2019-03-24T01:40:09.489Z,85.85
2019-03-24T01:40:35.597Z,85.28
2019-03-24T01:41:01.710Z,85.56
2019-03-24T01:41:28.817Z,85.47
2019-03-24T01:41:54.911Z,85.28
2019-03-24T01:42:21.015Z,85.66
2019-03-24T01:42:47.125Z,84.99
2019-03-24T01:43:13.237Z,85.66
2019-03-24T01:43:39.364Z,85.52
2019-03-24T01:44:05.474Z,85.85
2019-03-24T01:44:31.581Z,85.56
2019-03-24T01:44:57.691Z,85.08
2019-03-24T01:45:23.825Z,85.85
2019-03-24T01:45:58.080Z,85.56
2019-03-24T01:46:18.048Z,84.89
2019-03-24T01:46:44.156Z,85.08
2019-03-24T01:47:10.268Z,85.18
2019-03-24T01:47:36.409Z,85.47
2019-03-24T01:48:02.542Z,85.28
2019-03-24T01:48:28.651Z,85.18
2019-03-24T01:48:54.783Z,84.61
2019-03-24T01:49:20.920Z,84.8
2019-03-24T01:49:47.060Z,84.8
2019-03-24T01:50:13.169Z,84.61
2019-03-24T01:50:39.277Z,84.61
2019-03-24T01:51:05.394Z,84.61
2019-03-24T01:51:31.492Z,84.8
2019-03-24T01:51:57.596Z,84.42
2019-03-24T01:52:23.707Z,84.7
2019-03-24T01:52:49.825Z,84.61
2019-03-24T01:53:15.923Z,84.42
2019-03-24T01:53:42.076Z,84.7
2019-03-24T01:54:08.202Z,84.33
2019-03-24T01:54:34.342Z,84.13
2019-03-24T01:55:00.456Z,84.13
2019-03-24T01:55:26.562Z,84.42
2019-03-24T01:55:52.670Z,84.13
2019-03-24T01:56:18.771Z,84.33
2019-03-24T01:56:44.879Z,84.7
2019-03-24T01:57:10.987Z,84.8
2019-03-24T01:57:37.099Z,84.7
2019-03-24T01:58:03.205Z,84.61
2019-03-24T01:58:29.309Z,84.89
2019-03-24T01:58:55.419Z,84.7
2019-03-24T01:59:21.523Z,84.89
2019-03-24T01:59:47.631Z,84.7
2019-03-24T02:00:13.740Z,84.38
2019-03-24T02:00:39.879Z,84.76
2019-03-24T02:01:05.987Z,84.76
2019-03-24T02:01:32.129Z,84.56
2019-03-24T02:01:58.234Z,85.14
2019-03-24T02:02:24.338Z,85.04
2019-03-24T02:02:50.445Z,85.52
2019-03-24T02:03:16.584Z,85.24
2019-03-24T02:03:42.692Z,85.24
2019-03-24T02:04:08.799Z,85.42
2019-03-24T02:04:34.962Z,85.8
2019-03-24T02:05:01.035Z,85.61
2019-03-24T02:05:27.143Z,85.42
2019-03-24T02:05:53.245Z,85.33
2019-03-24T02:06:19.355Z,85.52
2019-03-24T02:06:45.468Z,85.33
2019-03-24T02:07:11.568Z,85.33
2019-03-24T02:07:37.677Z,85.04
2019-03-24T02:08:03.782Z,85.14
2019-03-24T02:08:29.895Z,85.33
2019-03-24T02:08:56.002Z,85.04
2019-03-24T02:09:22.141Z,84.95
2019-03-24T02:09:48.250Z,85.33
2019-03-24T02:10:14.358Z,85.33
2019-03-24T02:10:40.464Z,85.8
2019-03-24T02:11:06.573Z,85.9
2019-03-24T02:11:32.719Z,85.52
2019-03-24T02:11:58.797Z,85.8
2019-03-24T02:12:24.932Z,85.99
2019-03-24T02:12:51.039Z,86.66
2019-03-24T02:13:17.151Z,86.57
2019-03-24T02:13:43.282Z,86.57
2019-03-24T02:14:09.398Z,86.85
2019-03-24T02:14:35.501Z,86.76
2019-03-24T02:15:01.606Z,86.66
2019-03-24T02:15:27.718Z,86.85
2019-03-24T02:15:53.824Z,86.85
2019-03-24T02:16:20.945Z,86.09
2019-03-24T02:16:47.052Z,86.38
2019-03-24T02:17:14.150Z,86.09
2019-03-24T02:17:40.256Z,86.28
2019-03-24T02:18:06.363Z,86.18
2019-03-24T02:18:32.474Z,85.8
2019-03-24T02:18:58.579Z,86.09
2019-03-24T02:19:24.689Z,85.9
2019-03-24T02:19:50.792Z,86.57
2019-03-24T02:20:16.895Z,86.28
2019-03-24T02:20:43.004Z,85.8
2019-03-24T02:21:09.111Z,86.09
2019-03-24T02:21:35.217Z,85.8
2019-03-24T02:22:01.361Z,86.09
2019-03-24T02:22:27.491Z,86.57
2019-03-24T02:22:53.605Z,86.38
2019-03-24T02:23:19.743Z,86.76
2019-03-24T02:23:45.854Z,86.76
2019-03-24T02:24:12.000Z,86.09
2019-03-24T02:24:38.106Z,86.38
2019-03-24T02:25:04.238Z,86.38
2019-03-24T02:25:30.347Z,85.9
2019-03-24T02:25:56.459Z,85.9
2019-03-24T02:26:22.565Z,85.8
2019-03-24T02:26:48.671Z,86.09
2019-03-24T02:27:14.784Z,85.9
2019-03-24T02:27:40.882Z,85.61
2019-03-24T02:28:06.996Z,86.57
2019-03-24T02:28:33.237Z,86.38
2019-03-24T02:28:59.364Z,85.99
2019-03-24T02:29:25.550Z,86.18
2019-03-24T02:29:51.608Z,85.8
2019-03-24T02:30:17.722Z,86.38
2019-03-24T02:30:43.827Z,85.8
2019-03-24T02:31:09.976Z,85.8
2019-03-24T02:31:36.104Z,86.18
2019-03-24T02:32:02.246Z,85.71
2019-03-24T02:32:28.400Z,85.99
2019-03-24T02:32:54.563Z,86.38
2019-03-24T02:33:20.661Z,85.99
2019-03-24T02:33:46.749Z,85.8
2019-03-24T02:34:12.890Z,86.28
2019-03-24T02:34:39.035Z,86.18
2019-03-24T02:35:05.401Z,85.9
2019-03-24T02:35:31.300Z,86.28
2019-03-24T02:35:57.441Z,86.57
2019-03-24T02:36:23.641Z,86.38
2019-03-24T02:36:49.807Z,85.99
2019-03-24T02:37:15.963Z,86.28
2019-03-24T02:37:42.168Z,85.8
2019-03-24T02:38:08.275Z,85.99
2019-03-24T02:38:34.407Z,86.09
2019-03-24T02:39:00.566Z,86.18
2019-03-24T02:39:26.684Z,86.28
2019-03-24T02:39:52.823Z,86.28
2019-03-24T02:40:19.018Z,86.47
2019-03-24T02:40:45.156Z,86.76
2019-03-24T02:41:11.286Z,86.57
2019-03-24T02:41:37.396Z,86.57
2019-03-24T02:42:03.559Z,86.47
2019-03-24T02:42:29.720Z,86.57
2019-03-24T02:42:55.851Z,86.76
2019-03-24T02:43:21.990Z,86.61
2019-03-24T02:43:48.092Z,86.52
2019-03-24T02:44:14.202Z,86.76
2019-03-24T02:44:40.331Z,86.24
2019-03-24T02:45:06.447Z,87.09
2019-03-24T02:45:32.603Z,86.8
2019-03-24T02:45:58.766Z,86.8
2019-03-24T02:46:25.914Z,87.28
2019-03-24T02:46:52.021Z,87.09
2019-03-24T02:47:18.186Z,87.66
2019-03-24T02:47:44.291Z,87.76
2019-03-24T02:48:10.463Z,87.57
2019-03-24T02:48:36.577Z,87.57
2019-03-24T02:49:02.684Z,88.13
2019-03-24T02:49:28.789Z,88.13
2019-03-24T02:49:54.951Z,87.95
2019-03-24T02:50:21.401Z,88.04
2019-03-24T02:50:47.571Z,88.13
2019-03-24T02:51:13.729Z,88.13
2019-03-24T02:51:39.868Z,88.04
2019-03-24T02:52:06.012Z,88.23
2019-03-24T02:52:32.155Z,88.04
2019-03-24T02:52:58.293Z,88.23
2019-03-24T02:53:24.439Z,88.23
2019-03-24T02:53:50.633Z,87.95
2019-03-24T02:54:16.699Z,88.13
2019-03-24T02:54:42.802Z,87.66
2019-03-24T02:55:08.941Z,87.85
2019-03-24T02:55:35.054Z,87.85
2019-03-24T02:56:01.185Z,87.85
2019-03-24T02:56:27.293Z,87.76
2019-03-24T02:56:53.401Z,87.85
2019-03-24T02:57:19.588Z,88.42
2019-03-24T02:57:45.733Z,88.42
2019-03-24T02:58:11.900Z,88.42
2019-03-24T02:58:38.040Z,88.33
2019-03-24T02:59:04.139Z,88.13
2019-03-24T02:59:30.340Z,88.61
2019-03-24T02:59:56.443Z,88.52
2019-03-24T03:00:22.625Z,88.71
2019-03-24T03:00:48.761Z,88.52
2019-03-24T03:01:14.926Z,88.33
2019-03-24T03:01:41.065Z,88.52
2019-03-24T03:02:07.239Z,88.13
2019-03-24T03:02:33.406Z,88.33
2019-03-24T03:02:59.563Z,88.61
2019-03-24T03:03:25.670Z,88.52
2019-03-24T03:03:51.830Z,88.23
2019-03-24T03:04:18.022Z,88.23
2019-03-24T03:04:44.158Z,88.61
2019-03-24T03:05:10.316Z,88.61
2019-03-24T03:05:36.473Z,88.71
2019-03-24T03:06:02.606Z,88.8
2019-03-24T03:06:28.716Z,88.71
2019-03-24T03:06:54.846Z,88.61
2019-03-24T03:07:20.963Z,88.8
2019-03-24T03:07:47.056Z,88.61
2019-03-24T03:08:13.223Z,88.61
2019-03-24T03:08:39.391Z,88.8
2019-03-24T03:09:05.526Z,88.42
2019-03-24T03:09:31.693Z,88.61
2019-03-24T03:09:57.831Z,88.42
2019-03-24T03:10:23.988Z,88.04
2019-03-24T03:10:50.156Z,88.33
2019-03-24T03:11:16.292Z,88.33
2019-03-24T03:11:42.434Z,88.13
2019-03-24T03:12:08.591Z,88.52
2019-03-24T03:12:34.727Z,88.52
2019-03-24T03:13:01.904Z,88.61
2019-03-24T03:13:28.012Z,88.33
2019-03-24T03:13:54.179Z,88.52
2019-03-24T03:14:20.282Z,88.52
2019-03-24T03:14:46.399Z,88.33
2019-03-24T03:15:12.640Z,88.33
2019-03-24T03:15:38.794Z,88.61
2019-03-24T03:16:04.929Z,88.33
2019-03-24T03:16:38.128Z,88.13
2019-03-24T03:16:59.143Z,88.42
2019-03-24T03:17:25.278Z,88.42
2019-03-24T03:17:51.386Z,88.71
2019-03-24T03:18:17.495Z,88.61
2019-03-24T03:18:43.655Z,88.42
2019-03-24T03:19:09.788Z,88.13
2019-03-24T03:19:35.894Z,88.13
2019-03-24T03:20:03.010Z,88.23
2019-03-24T03:20:29.134Z,88.04
2019-03-24T03:20:55.235Z,88.04
2019-03-24T03:21:21.383Z,88.61
2019-03-24T03:21:47.543Z,88.04
2019-03-24T03:22:13.678Z,88.23
2019-03-24T03:22:39.810Z,88.13
2019-03-24T03:23:05.924Z,88.23
2019-03-24T03:23:32.078Z,87.95
2019-03-24T03:23:58.216Z,88.04
2019-03-24T03:24:24.351Z,87.95
2019-03-24T03:24:50.510Z,88.13
2019-03-24T03:25:16.621Z,88.42
2019-03-24T03:25:42.723Z,88.52
2019-03-24T03:26:08.894Z,88.13
2019-03-24T03:26:35.056Z,88.61
2019-03-24T03:27:01.192Z,88.33
2019-03-24T03:27:27.300Z,88.52
2019-03-24T03:27:53.404Z,88.13
2019-03-24T03:28:19.541Z,88.19
2019-03-24T03:28:45.659Z,88.52
2019-03-24T03:29:11.798Z,88.38
2019-03-24T03:29:37.935Z,88.71
2019-03-24T03:30:04.079Z,88.57
2019-03-24T03:30:30.242Z,88.33
2019-03-24T03:30:56.373Z,88.57
2019-03-24T03:31:22.489Z,88.47
2019-03-24T03:31:48.657Z,88.47
2019-03-24T03:32:14.846Z,88.52
2019-03-24T03:32:41.045Z,88.57
2019-03-24T03:33:07.182Z,88.57
2019-03-24T03:33:33.311Z,88.67
2019-03-24T03:33:59.582Z,88.9
2019-03-24T03:34:25.797Z,88.95
2019-03-24T03:34:51.960Z,89.14
2019-03-24T03:35:18.345Z,88.95
2019-03-24T03:35:44.507Z,89.04
2019-03-24T03:36:10.633Z,89.04
2019-03-24T03:36:36.800Z,88.71
2019-03-24T03:37:02.970Z,88.76
2019-03-24T03:37:29.161Z,88.9
2019-03-24T03:37:55.305Z,88.19
2019-03-24T03:38:21.443Z,88.28
2019-03-24T03:38:47.577Z,88.28
2019-03-24T03:39:13.707Z,88.52
2019-03-24T03:39:39.872Z,88.04
2019-03-24T03:40:07.264Z,88.23
2019-03-24T03:40:33.528Z,88.13
2019-03-24T03:40:59.665Z,87.85
2019-03-24T03:41:25.804Z,87.85
2019-03-24T03:41:51.983Z,88.52
2019-03-24T03:42:18.114Z,88.19
2019-03-24T03:42:44.302Z,88.04
2019-03-24T03:43:10.422Z,88.57
2019-03-24T03:43:36.558Z,88.42
2019-03-24T03:44:02.689Z,88.23
2019-03-24T03:44:28.798Z,88.33
2019-03-24T03:44:54.942Z,88.09
2019-03-24T03:45:21.290Z,88.28
2019-03-24T03:45:48.391Z,88.76
2019-03-24T03:46:14.532Z,88.9
2019-03-24T03:46:51.761Z,88.9
2019-03-24T03:47:07.889Z,88.76
2019-03-24T03:47:34.024Z,88.85
2019-03-24T03:48:00.159Z,88.67
2019-03-24T03:48:26.251Z,88.76
2019-03-24T03:48:52.386Z,88.67
2019-03-24T03:49:18.529Z,88.85
2019-03-24T03:49:44.658Z,88.85
2019-03-24T03:50:11.015Z,88.85
2019-03-24T03:50:37.122Z,89.23
2019-03-24T03:51:03.257Z,89.14
2019-03-24T03:51:29.397Z,88.85
2019-03-24T03:51:55.555Z,88.67
2019-03-24T03:52:21.762Z,88.67
2019-03-24T03:52:47.862Z,88.76
2019-03-24T03:53:13.999Z,88.47
2019-03-24T03:53:40.132Z,88.28
2019-03-24T03:54:07.227Z,88.47
2019-03-24T03:54:33.388Z,88.38
2019-03-24T03:54:59.579Z,88.19
2019-03-24T03:55:25.754Z,88.47
2019-03-24T03:55:51.865Z,88.19
2019-03-24T03:56:18.004Z,88.47
2019-03-24T03:56:44.143Z,88.57
2019-03-24T03:57:10.251Z,88.38
2019-03-24T03:57:36.454Z,88.47
2019-03-24T03:58:02.581Z,88.38
2019-03-24T03:58:28.716Z,88.47
2019-03-24T03:58:54.852Z,88.57
2019-03-24T03:59:21.021Z,88.38
2019-03-24T03:59:47.121Z,88.67
2019-03-24T04:00:13.258Z,88.67
2019-03-24T04:00:39.373Z,88.76
2019-03-24T04:01:05.531Z,89.14
2019-03-24T04:01:31.677Z,89.23
2019-03-24T04:01:57.800Z,89.23
2019-03-24T04:02:23.969Z,89.42
2019-03-24T04:02:50.074Z,88.85
2019-03-24T04:03:16.265Z,89.04
2019-03-24T04:03:42.344Z,88.76
2019-03-24T04:04:08.453Z,88.76
2019-03-24T04:04:34.613Z,89.04
2019-03-24T04:05:00.745Z,88.85
2019-03-24T04:05:26.856Z,88.76
2019-03-24T04:05:53.001Z,88.95
2019-03-24T04:06:19.215Z,88.95
2019-03-24T04:06:45.376Z,89.14
2019-03-24T04:07:11.521Z,89.14
2019-03-24T04:07:37.648Z,88.85
2019-03-24T04:08:03.847Z,89.04
2019-03-24T04:08:29.977Z,88.85
2019-03-24T04:08:56.176Z,89.04
2019-03-24T04:09:22.319Z,88.85
2019-03-24T04:09:48.471Z,89.23
2019-03-24T04:10:14.569Z,89.33
2019-03-24T04:10:40.724Z,89.23
2019-03-24T04:11:06.911Z,89.33
2019-03-24T04:11:33.061Z,89.23
2019-03-24T04:11:59.197Z,89.23
2019-03-24T04:12:25.354Z,89.33
2019-03-24T04:12:51.462Z,89.14
2019-03-24T04:13:17.606Z,89.23
2019-03-24T04:13:43.798Z,89.42
2019-03-24T04:14:09.963Z,89.42
2019-03-24T04:14:36.151Z,89.33
2019-03-24T04:15:02.280Z,89.42
2019-03-24T04:15:28.440Z,89.42
2019-03-24T04:15:54.526Z,89.42
2019-03-24T04:16:20.653Z,89.04
2019-03-24T04:16:46.814Z,89.42
2019-03-24T04:17:14.971Z,89.14
2019-03-24T04:17:41.068Z,89.33
2019-03-24T04:18:07.206Z,89.42
2019-03-24T04:18:33.389Z,89.33
2019-03-24T04:18:59.539Z,89.42
2019-03-24T04:19:25.756Z,89.42
2019-03-24T04:19:51.850Z,89.23
2019-03-24T04:20:18.011Z,89.42
2019-03-24T04:20:44.207Z,89.52
2019-03-24T04:21:10.321Z,89.71
2019-03-24T04:21:36.483Z,89.52
2019-03-24T04:22:02.628Z,89.33
2019-03-24T04:22:28.756Z,89.9
2019-03-24T04:22:54.869Z,89.9
2019-03-24T04:23:21.397Z,89.42
2019-03-24T04:23:48.265Z,89.71
2019-03-24T04:24:14.578Z,89.61
2019-03-24T04:24:40.705Z,89.71
2019-03-24T04:25:06.924Z,89.71
2019-03-24T04:25:33.087Z,90.09
2019-03-24T04:25:59.233Z,89.8
2019-03-24T04:26:25.362Z,89.9
2019-03-24T04:26:51.531Z,90
2019-03-24T04:27:17.662Z,90
2019-03-24T04:27:43.803Z,90.09
2019-03-24T04:28:09.938Z,89.71
2019-03-24T04:28:36.044Z,89.8
2019-03-24T04:29:02.154Z,90.28
2019-03-24T04:29:28.346Z,90.28
2019-03-24T04:29:54.510Z,90.47
2019-03-24T04:30:20.644Z,90.19
2019-03-24T04:30:46.807Z,90.37
2019-03-24T04:31:12.974Z,90.47
2019-03-24T04:31:39.105Z,90.56
2019-03-24T04:32:05.214Z,90.19
2019-03-24T04:32:31.354Z,89.9
2019-03-24T04:32:57.456Z,90.09
2019-03-24T04:33:23.617Z,90.56
2019-03-24T04:33:49.785Z,90.56
2019-03-24T04:34:15.923Z,90.47
2019-03-24T04:34:42.085Z,90.28
2019-03-24T04:35:08.225Z,90.85
2019-03-24T04:35:34.356Z,90.66
2019-03-24T04:36:00.497Z,90.37
2019-03-24T04:36:26.660Z,90.56
2019-03-24T04:36:52.770Z,90.56
2019-03-24T04:37:18.911Z,90.19
2019-03-24T04:37:45.079Z,90.47
2019-03-24T04:38:11.245Z,90.56
2019-03-24T04:38:37.359Z,90.75
2019-03-24T04:39:03.489Z,90.37
2019-03-24T04:39:29.630Z,90.75
2019-03-24T04:39:55.765Z,90.47
2019-03-24T04:40:21.879Z,90.85
2019-03-24T04:40:48.012Z,90.09
2019-03-24T04:41:14.117Z,90.28
2019-03-24T04:41:40.222Z,90.28
2019-03-24T04:42:06.348Z,90.09
2019-03-24T04:42:32.487Z,90.19
2019-03-24T04:42:58.633Z,89.61
2019-03-24T04:43:24.736Z,90.09
2019-03-24T04:43:50.873Z,90
2019-03-24T04:44:17.008Z,89.61
2019-03-24T04:44:43.110Z,89.61
2019-03-24T04:45:09.222Z,89.42
2019-03-24T04:45:35.364Z,89.42
2019-03-24T04:46:01.455Z,89.52
2019-03-24T04:46:27.554Z,89.71
2019-03-24T04:46:53.662Z,89.8
2019-03-24T04:47:20.784Z,90.28
2019-03-24T04:47:46.890Z,90.19
2019-03-24T04:48:13.028Z,90.09
2019-03-24T04:48:39.136Z,90.09
2019-03-24T04:49:05.271Z,90.14
2019-03-24T04:49:31.373Z,90.42
2019-03-24T04:49:57.536Z,90.23
2019-03-24T04:50:23.646Z,90.52
2019-03-24T04:50:49.749Z,90.28
2019-03-24T04:51:15.858Z,90.75
2019-03-24T04:51:41.969Z,90.42
2019-03-24T04:52:08.079Z,90.37
2019-03-24T04:52:34.185Z,90.47
2019-03-24T04:53:00.293Z,90.52
2019-03-24T04:53:26.401Z,90.94
2019-03-24T04:53:52.543Z,90.94
2019-03-24T04:54:18.651Z,90.47
2019-03-24T04:54:44.755Z,90.37
2019-03-24T04:55:10.866Z,90.33
2019-03-24T04:55:36.974Z,90.9
2019-03-24T04:56:03.082Z,90.9
2019-03-24T04:56:29.187Z,90.19
2019-03-24T04:56:55.322Z,90.52
2019-03-24T04:57:21.429Z,90.94
2019-03-24T04:57:47.547Z,90.9
2019-03-24T04:58:13.728Z,90.52
2019-03-24T04:58:39.836Z,90.8
2019-03-24T04:59:05.945Z,90.8
2019-03-24T04:59:32.028Z,90.71
2019-03-24T04:59:58.136Z,90.85
2019-03-24T05:00:24.245Z,90.42
2019-03-24T05:00:50.361Z,90.99
2019-03-24T05:01:16.458Z,90.8
2019-03-24T05:01:42.604Z,90.8
2019-03-24T05:02:08.713Z,90.71
2019-03-24T05:02:34.879Z,90.8
2019-03-24T05:03:00.980Z,90.85
2019-03-24T05:03:27.116Z,90.85
2019-03-24T05:03:53.219Z,90.8
2019-03-24T05:04:19.332Z,90.42
2019-03-24T05:04:45.437Z,90.33
2019-03-24T05:05:11.545Z,90.42
2019-03-24T05:05:37.651Z,90.8
2019-03-24T05:06:03.756Z,90.85
2019-03-24T05:06:29.863Z,90.23
2019-03-24T05:06:56.000Z,90.42
2019-03-24T05:07:22.133Z,90.52
2019-03-24T05:07:48.243Z,90.8
2019-03-24T05:08:14.351Z,90.8
2019-03-24T05:08:40.457Z,90.52
2019-03-24T05:09:06.558Z,90.42
2019-03-24T05:09:32.696Z,91.09
2019-03-24T05:09:58.826Z,91.38
2019-03-24T05:10:24.940Z,91.19
2019-03-24T05:10:51.047Z,91.19
2019-03-24T05:11:17.163Z,91.19
2019-03-24T05:11:43.263Z,91.56
2019-03-24T05:12:09.371Z,91.85
2019-03-24T05:12:35.500Z,91.94
2019-03-24T05:13:01.611Z,91.75
2019-03-24T05:13:27.711Z,91.09
2019-03-24T05:13:53.819Z,90.99
2019-03-24T05:14:19.958Z,90.9
2019-03-24T05:14:46.065Z,91.09
2019-03-24T05:15:12.198Z,91.09
2019-03-24T05:15:38.303Z,91.28
2019-03-24T05:16:04.407Z,91.09
2019-03-24T05:16:30.517Z,90.99
2019-03-24T05:16:56.647Z,90.8
2019-03-24T05:17:27.127Z,90.71
2019-03-24T05:17:50.844Z,90.9
2019-03-24T05:18:17.007Z,90.9
2019-03-24T05:18:43.117Z,90.8
2019-03-24T05:19:09.225Z,91.19
2019-03-24T05:19:35.337Z,91.19
2019-03-24T05:20:01.446Z,91.38
2019-03-24T05:20:27.583Z,91.19
2019-03-24T05:20:53.717Z,91.38
2019-03-24T05:21:19.824Z,91.85
2019-03-24T05:21:45.933Z,91.47
2019-03-24T05:22:12.038Z,91.28
2019-03-24T05:22:38.147Z,91.28
2019-03-24T05:23:04.308Z,91.75
2019-03-24T05:23:30.420Z,91.75
2019-03-24T05:23:56.546Z,91.47
2019-03-24T05:24:22.655Z,91.38
2019-03-24T05:24:48.760Z,91.85
2019-03-24T05:25:14.867Z,91.38
2019-03-24T05:25:40.978Z,91.09
2019-03-24T05:26:07.085Z,91.66
2019-03-24T05:26:33.192Z,91.38
2019-03-24T05:26:59.302Z,91.56
2019-03-24T05:27:25.433Z,91.56
2019-03-24T05:27:51.541Z,91.66
2019-03-24T05:28:17.650Z,91.85
2019-03-24T05:28:43.759Z,91.85
2019-03-24T05:29:09.893Z,91.56
2019-03-24T05:29:35.997Z,91.66
2019-03-24T05:30:02.132Z,91.75
2019-03-24T05:30:28.243Z,91.75
2019-03-24T05:30:54.352Z,91.38
2019-03-24T05:31:20.456Z,91.47
2019-03-24T05:31:46.592Z,91.19
2019-03-24T05:32:12.700Z,91.47
2019-03-24T05:32:38.835Z,91.66
2019-03-24T05:33:04.940Z,91.38
2019-03-24T05:33:31.040Z,91.28
2019-03-24T05:33:57.178Z,90.99
2019-03-24T05:34:23.281Z,91.38
2019-03-24T05:34:49.395Z,90.99
2019-03-24T05:35:16.288Z,91.19
2019-03-24T05:35:42.391Z,91.09
2019-03-24T05:36:08.524Z,90.8
2019-03-24T05:36:34.632Z,90.9
2019-03-24T05:37:00.741Z,90.71
2019-03-24T05:37:26.834Z,90.8
2019-03-24T05:37:52.944Z,90.52
2019-03-24T05:38:19.055Z,90.8